Time;durP1;ratioP1;P1;durP2;ratioP2;P2;SDS_P1;SDS_P2;PMS_P1;PMS_P2;Temp;Humidity;BMP_temperature;BMP_pressure;BME280_temperature;BME280_humidity;BME280_pressure;Samples;Min_cycle;Max_cycle;Signal;HPM_P1;HPM_P2
2023/10/01 00:01:02;;;;;;;8.47;4.57;;;14.00;99.90;;;;;;5039840;28;20195;-68
2023/10/01 00:03:30;;;;;;;7.23;4.20;;;14.00;99.90;;;;;;5037722;28;20184;-64
2023/10/01 00:05:58;;;;;;;8.73;4.00;;;14.00;99.90;;;;;;5036863;28;20362;-64
2023/10/01 00:08:25;;;;;;;5.10;3.73;;;14.00;99.90;;;;;;5037538;28;20188;-64
2023/10/01 00:10:52;;;;;;;6.27;4.63;;;13.90;99.90;;;;;;5036078;28;20196;-65
2023/10/01 00:13:20;;;;;;;5.17;3.90;;;13.90;99.90;;;;;;5032579;28;20191;-65
2023/10/01 00:15:49;;;;;;;5.33;3.97;;;13.80;99.90;;;;;;5036874;28;20209;-64
2023/10/01 00:18:16;;;;;;;9.47;4.03;;;13.70;99.90;;;;;;5025047;28;20194;-64
2023/10/01 00:20:43;;;;;;;11.73;4.20;;;13.60;99.90;;;;;;5022256;28;20514;-70
2023/10/01 00:23:11;;;;;;;11.70;4.60;;;13.70;99.90;;;;;;5029373;28;20720;-74
2023/10/01 00:25:38;;;;;;;5.40;3.70;;;13.70;99.90;;;;;;5022342;28;20299;-68
2023/10/01 00:28:07;;;;;;;7.23;3.90;;;13.70;99.90;;;;;;5014124;28;20227;-65
2023/10/01 00:30:35;;;;;;;9.30;3.83;;;13.80;99.90;;;;;;5017276;28;20205;-65
2023/10/01 00:33:07;;;;;;;5.23;3.97;;;13.90;99.90;;;;;;5020586;28;20229;-65
2023/10/01 00:35:39;;;;;;;6.63;3.90;;;13.70;99.90;;;;;;5020939;28;20640;-64
2023/10/01 00:38:07;;;;;;;7.87;3.97;;;13.70;99.90;;;;;;5021932;28;20319;-66
2023/10/01 00:40:35;;;;;;;6.70;3.73;;;13.80;99.90;;;;;;5028721;28;20691;-63
2023/10/01 00:43:03;;;;;;;10.93;4.60;;;13.90;99.90;;;;;;5025963;28;20635;-64
2023/10/01 00:45:31;;;;;;;6.93;3.70;;;14.00;99.90;;;;;;5024046;28;20219;-66
2023/10/01 00:48:14;;;;;;;6.97;4.47;;;14.00;99.90;;;;;;5027237;28;20193;-66
2023/10/01 00:50:42;;;;;;;6.80;4.53;;;13.90;99.90;;;;;;5026349;28;21109;-65
2023/10/01 00:53:10;;;;;;;6.40;4.27;;;13.70;99.90;;;;;;5020104;28;20267;-64
2023/10/01 00:55:38;;;;;;;4.73;3.70;;;13.70;99.90;;;;;;5025775;28;20204;-66
2023/10/01 00:58:05;;;;;;;7.13;4.13;;;13.50;99.90;;;;;;5018341;28;20193;-66
2023/10/01 01:00:32;;;;;;;6.77;3.87;;;13.40;99.90;;;;;;5016283;28;20193;-64
2023/10/01 01:03:07;;;;;;;6.43;4.27;;;13.30;99.90;;;;;;5019107;28;20238;-69
2023/10/01 01:05:37;;;;;;;5.10;4.17;;;13.20;99.90;;;;;;5015875;28;20216;-68
2023/10/01 01:08:28;;;;;;;6.57;4.20;;;13.20;99.90;;;;;;5030090;28;20271;-67
2023/10/01 01:10:57;;;;;;;5.60;4.10;;;13.10;99.90;;;;;;5025702;28;20208;-65
2023/10/01 01:13:28;;;;;;;12.20;5.00;;;13.00;99.90;;;;;;5032871;28;20201;-67
2023/10/01 01:15:57;;;;;;;7.53;4.50;;;13.00;99.90;;;;;;5012326;28;20314;-66
2023/10/01 01:18:26;;;;;;;4.90;3.83;;;12.90;99.90;;;;;;5031258;28;20188;-66
2023/10/01 01:20:58;;;;;;;6.20;3.77;;;12.90;99.90;;;;;;5031980;28;20556;-65
2023/10/01 01:23:27;;;;;;;7.57;4.40;;;12.90;99.90;;;;;;5045810;28;20311;-69
2023/10/01 01:25:54;;;;;;;8.13;4.80;;;12.80;99.90;;;;;;5034418;28;20212;-67
2023/10/01 01:28:27;;;;;;;7.80;4.10;;;12.70;99.90;;;;;;5029552;28;20256;-70
2023/10/01 01:30:55;;;;;;;7.37;4.40;;;12.60;99.90;;;;;;5031049;28;20196;-66
2023/10/01 01:33:26;;;;;;;8.33;5.77;;;12.50;99.90;;;;;;5030626;28;20323;-66
2023/10/01 01:35:54;;;;;;;7.90;5.37;;;12.50;99.90;;;;;;5030454;28;20224;-67
2023/10/01 01:38:25;;;;;;;11.03;5.30;;;12.60;99.90;;;;;;5032899;28;20347;-66
2023/10/01 01:40:53;;;;;;;11.00;5.13;;;12.50;99.90;;;;;;5027337;28;20200;-66
2023/10/01 01:43:23;;;;;;;8.53;5.37;;;12.60;99.90;;;;;;5021933;28;20189;-66
2023/10/01 01:45:55;;;;;;;4.73;3.93;;;12.80;99.90;;;;;;5027357;28;20580;-66
2023/10/01 01:50:58;;;;;;;7.83;4.70;;;12.70;99.90;;;;;;5025215;28;20184;-65
2023/10/01 01:53:46;;;;;;;8.90;4.33;;;12.60;99.90;;;;;;5017033;28;20216;-66
2023/10/01 01:56:16;;;;;;;7.47;4.00;;;12.70;99.90;;;;;;5041159;28;20219;-65
2023/10/01 01:58:44;;;;;;;9.53;4.93;;;12.90;99.90;;;;;;5024712;28;20208;-66
2023/10/01 02:05:11;;;;;;;6.57;4.67;;;13.20;99.90;;;;;;5025649;28;20196;-68
2023/10/01 02:07:38;;;;;;;6.73;4.63;;;13.30;99.90;;;;;;5028937;28;20280;-69
2023/10/01 02:10:07;;;;;;;5.63;4.13;;;13.30;99.90;;;;;;5018856;28;20227;-74
2023/10/01 02:12:36;;;;;;;8.63;4.60;;;13.50;99.90;;;;;;5023218;28;20212;-67
2023/10/01 02:15:07;;;;;;;7.07;3.87;;;13.50;99.90;;;;;;5011795;28;20201;-72
2023/10/01 02:17:35;;;;;;;8.40;4.20;;;13.40;99.90;;;;;;5016642;28;20650;-70
2023/10/01 02:20:22;;;;;;;7.33;3.97;;;13.10;99.90;;;;;;5026767;28;20197;-72
2023/10/01 02:22:49;;;;;;;7.23;4.93;;;13.00;99.90;;;;;;5019588;28;20192;-67
2023/10/01 02:25:16;;;;;;;7.53;5.10;;;13.00;99.90;;;;;;5029421;28;20197;-63
2023/10/01 02:28:05;;;;;;;15.87;7.10;;;13.20;99.90;;;;;;5018990;28;20357;-64
2023/10/01 02:30:32;;;;;;;12.30;7.47;;;13.40;99.90;;;;;;5026822;28;20653;-64
2023/10/01 02:33:20;;;;;;;11.47;7.87;;;13.70;99.90;;;;;;5022537;28;20639;-64
2023/10/01 02:35:49;;;;;;;8.50;5.97;;;13.80;99.90;;;;;;5011839;28;20181;-66
2023/10/01 02:38:37;;;;;;;9.43;6.87;;;13.90;99.90;;;;;;5039221;28;20232;-63
2023/10/01 02:41:25;;;;;;;17.90;9.00;;;13.90;99.90;;;;;;5031194;28;20208;-66
2023/10/01 02:43:53;;;;;;;8.43;5.67;;;13.90;99.90;;;;;;5030222;28;20206;-63
2023/10/01 02:46:29;;;;;;;15.37;10.00;;;14.10;99.90;;;;;;5038356;28;20234;-63
2023/10/01 02:48:59;;;;;;;8.80;4.80;;;14.20;99.90;;;;;;5015166;28;20200;-65
2023/10/01 02:51:37;;;;;;;6.53;4.53;;;14.10;99.90;;;;;;5017156;28;20605;-63
2023/10/01 02:54:05;;;;;;;6.17;3.63;;;14.10;99.90;;;;;;5027635;28;20200;-63
2023/10/01 02:56:37;;;;;;;5.57;3.87;;;14.00;99.90;;;;;;5030256;28;20192;-63
2023/10/01 02:59:13;;;;;;;7.50;3.93;;;13.80;99.90;;;;;;5021851;28;20231;-63
2023/10/01 03:01:45;;;;;;;7.60;4.20;;;13.80;99.90;;;;;;5025140;28;20188;-63
2023/10/01 03:04:17;;;;;;;9.93;4.37;;;13.90;99.90;;;;;;5025062;28;20657;-66
2023/10/01 03:06:55;;;;;;;9.90;4.53;;;13.90;99.90;;;;;;5016496;28;20204;-63
2023/10/01 03:09:31;;;;;;;6.20;3.80;;;14.00;99.90;;;;;;5026216;28;20227;-64
2023/10/01 03:17:38;;;;;;;14.07;4.33;;;14.20;99.90;;;;;;5011732;28;20594;-63
2023/10/01 03:21:07;;;;;;;6.10;3.73;;;14.20;99.90;;;;;;5017380;28;20193;-63
2023/10/01 03:28:35;;;;;;;7.00;3.53;;;14.30;99.90;;;;;;5018889;28;20340;-64
2023/10/01 03:31:08;;;;;;;5.87;3.73;;;14.20;99.90;;;;;;5015414;28;20196;-69
2023/10/01 03:33:37;;;;;;;6.17;4.10;;;14.20;99.90;;;;;;5024532;28;21006;-62
2023/10/01 03:36:11;;;;;;;5.73;3.47;;;14.10;99.90;;;;;;5027793;28;20373;-63
2023/10/01 03:38:45;;;;;;;5.60;3.90;;;14.10;99.90;;;;;;5023520;28;20244;-62
2023/10/01 03:41:21;;;;;;;6.67;3.53;;;13.90;99.90;;;;;;5024563;28;20677;-66
2023/10/01 03:44:09;;;;;;;9.60;3.70;;;13.80;99.90;;;;;;5026067;28;20188;-63
2023/10/01 03:46:46;;;;;;;6.40;3.37;;;13.80;99.90;;;;;;5016438;28;20538;-63
2023/10/01 03:51:59;;;;;;;6.30;3.60;;;13.80;99.90;;;;;;5015808;28;20734;-63
2023/10/01 03:57:19;;;;;;;7.47;3.80;;;13.90;99.90;;;;;;5025823;28;20204;-67
2023/10/01 03:59:53;;;;;;;7.90;3.70;;;14.00;99.90;;;;;;5022761;28;20196;-64
2023/10/01 04:02:28;;;;;;;4.20;2.93;;;14.10;99.90;;;;;;5030924;28;20582;-65
2023/10/01 04:04:59;;;;;;;9.27;3.43;;;14.10;99.90;;;;;;5032336;28;20191;-65
2023/10/01 04:07:45;;;;;;;5.53;3.50;;;14.20;99.90;;;;;;5032816;28;20660;-65
2023/10/01 04:10:14;;;;;;;5.90;3.67;;;14.20;99.90;;;;;;5026180;28;20672;-77
2023/10/01 04:12:44;;;;;;;5.20;2.77;;;14.30;99.90;;;;;;5024856;28;20502;-66
2023/10/01 04:15:27;;;;;;;5.77;3.37;;;14.30;99.90;;;;;;5024994;28;20196;-64
2023/10/01 04:20:49;;;;;;;4.10;2.90;;;14.40;99.90;;;;;;5014654;28;20258;-66
2023/10/01 04:23:21;;;;;;;5.27;2.80;;;14.40;99.90;;;;;;5030212;28;20187;-64
2023/10/01 04:25:51;;;;;;;7.00;3.43;;;14.40;99.90;;;;;;5015588;28;20193;-65
2023/10/01 04:28:18;;;;;;;4.23;2.43;;;14.50;99.90;;;;;;5030710;28;20195;-65
2023/10/01 04:30:51;;;;;;;4.73;3.20;;;14.50;99.90;;;;;;5025220;28;20657;-76
2023/10/01 04:33:23;;;;;;;4.53;2.97;;;14.50;99.90;;;;;;5028444;28;20220;-64
2023/10/01 04:35:58;;;;;;;5.00;2.60;;;14.50;99.90;;;;;;5028118;28;20565;-64
2023/10/01 04:38:29;;;;;;;6.13;2.97;;;14.50;99.90;;;;;;5032992;28;20231;-65
2023/10/01 04:40:57;;;;;;;4.47;2.83;;;14.50;99.90;;;;;;5034957;28;20234;-66
2023/10/01 04:43:26;;;;;;;5.50;3.03;;;14.50;99.90;;;;;;5030595;28;20245;-64
2023/10/01 04:45:53;;;;;;;6.53;3.00;;;14.50;99.90;;;;;;5031319;28;20221;-63
2023/10/01 04:48:23;;;;;;;4.70;2.97;;;14.50;99.90;;;;;;5019103;28;20706;-63
2023/10/01 04:50:56;;;;;;;4.87;2.53;;;14.50;99.90;;;;;;5024162;28;20219;-65
2023/10/01 04:53:25;;;;;;;5.23;2.70;;;14.50;99.90;;;;;;5019339;28;20550;-65
2023/10/01 04:56:05;;;;;;;5.67;2.50;;;14.50;99.90;;;;;;5024959;28;20196;-67
2023/10/01 04:58:37;;;;;;;5.67;3.07;;;14.50;99.90;;;;;;5023773;28;20260;-66
2023/10/01 05:01:11;;;;;;;7.03;3.27;;;14.50;99.90;;;;;;5029014;28;20207;-63
2023/10/01 05:03:39;;;;;;;5.47;2.93;;;14.50;99.90;;;;;;5026257;28;20227;-62
2023/10/01 05:06:14;;;;;;;4.57;2.67;;;14.50;99.90;;;;;;5026916;28;20286;-62
2023/10/01 05:08:42;;;;;;;4.13;2.50;;;14.50;99.90;;;;;;5023328;28;20225;-64
2023/10/01 05:11:11;;;;;;;6.43;3.23;;;14.50;99.90;;;;;;5026682;28;20207;-74
2023/10/01 05:13:43;;;;;;;3.90;2.70;;;14.50;99.90;;;;;;5038095;28;20288;-63
2023/10/01 05:16:18;;;;;;;4.23;2.70;;;14.60;99.90;;;;;;5033695;28;20189;-62
2023/10/01 05:18:46;;;;;;;4.80;2.80;;;14.60;99.90;;;;;;5022815;28;20196;-62
2023/10/01 05:21:13;;;;;;;8.10;3.23;;;14.60;99.90;;;;;;5019108;28;20197;-62
2023/10/01 05:23:43;;;;;;;5.80;2.97;;;14.60;99.90;;;;;;5025220;28;20196;-62
2023/10/01 05:26:10;;;;;;;4.87;3.87;;;14.60;99.90;;;;;;5024224;28;20181;-63
2023/10/01 05:28:42;;;;;;;4.90;2.77;;;14.60;99.90;;;;;;5026384;28;20196;-65
2023/10/01 05:31:12;;;;;;;4.57;2.93;;;14.70;99.90;;;;;;5026699;28;20216;-64
2023/10/01 05:33:52;;;;;;;5.43;3.20;;;14.80;99.90;;;;;;5019993;28;20220;-65
2023/10/01 05:36:19;;;;;;;5.72;3.15;;;14.80;99.90;;;;;;5027843;28;20198;-67
2023/10/01 05:38:46;;;;;;;4.88;2.53;;;14.80;99.90;;;;;;5031475;28;20744;-64
2023/10/01 05:41:13;;;;;;;6.80;3.90;;;14.90;99.90;;;;;;5021145;28;20542;-65
2023/10/01 05:43:43;;;;;;;5.35;2.90;;;14.80;99.90;;;;;;5024159;28;20307;-68
2023/10/01 05:46:11;;;;;;;5.93;2.60;;;14.80;99.90;;;;;;5014072;28;20630;-69
2023/10/01 05:48:39;;;;;;;5.80;3.00;;;14.70;99.90;;;;;;5028543;28;20351;-70
2023/10/01 05:51:18;;;;;;;4.45;2.70;;;14.80;99.90;;;;;;5023101;28;20617;-70
2023/10/01 05:53:46;;;;;;;4.68;2.80;;;14.80;99.90;;;;;;5024881;28;20215;-71
2023/10/01 05:56:19;;;;;;;4.85;3.00;;;14.70;99.90;;;;;;5028270;28;20715;-69
2023/10/01 05:58:47;;;;;;;5.90;2.92;;;14.80;99.90;;;;;;5011142;28;20340;-69
2023/10/01 06:01:14;;;;;;;7.30;3.20;;;14.70;99.90;;;;;;5016171;28;20221;-69
2023/10/01 06:03:43;;;;;;;3.50;2.65;;;14.70;99.90;;;;;;5022630;28;20216;-68
2023/10/01 06:06:23;;;;;;;7.55;3.50;;;14.60;99.90;;;;;;5022279;28;20201;-74
2023/10/01 06:08:58;;;;;;;6.05;2.90;;;14.60;99.90;;;;;;5028412;28;20196;-67
2023/10/01 06:11:42;;;;;;;4.93;2.95;;;14.70;99.90;;;;;;5031112;28;20203;-77
2023/10/01 06:14:29;;;;;;;5.40;2.80;;;14.70;99.90;;;;;;5019294;28;20314;-70
2023/10/01 06:17:05;;;;;;;7.93;3.08;;;14.70;99.90;;;;;;5028333;28;20299;-68
2023/10/01 06:19:32;;;;;;;7.60;3.00;;;14.70;99.90;;;;;;5025281;28;20259;-71
2023/10/01 06:22:13;;;;;;;6.20;2.80;;;14.80;99.90;;;;;;5018132;28;20235;-70
2023/10/01 06:24:43;;;;;;;3.80;2.67;;;14.90;99.90;;;;;;5026340;28;20196;-68
2023/10/01 06:27:17;;;;;;;6.73;3.03;;;14.90;99.90;;;;;;5024613;28;20262;-81
2023/10/01 06:29:51;;;;;;;4.45;2.40;;;15.10;99.90;;;;;;5028420;28;20675;-70
2023/10/01 06:32:19;;;;;;;5.00;3.13;;;15.00;99.90;;;;;;5029351;28;20224;-76
2023/10/01 06:34:49;;;;;;;8.53;3.10;;;15.00;99.90;;;;;;5026857;28;20352;-70
2023/10/01 06:37:20;;;;;;;4.60;2.88;;;15.10;99.90;;;;;;5023699;28;20191;-68
2023/10/01 06:39:47;;;;;;;3.83;2.53;;;15.30;99.90;;;;;;5041235;28;20669;-78
2023/10/01 06:42:23;;;;;;;4.95;2.88;;;15.50;99.90;;;;;;5019027;28;20196;-66
2023/10/01 06:44:53;;;;;;;6.10;3.08;;;15.70;99.90;;;;;;5033144;28;20675;-66
2023/10/01 06:47:26;;;;;;;5.07;2.40;;;15.90;99.90;;;;;;5027753;28;20212;-66
2023/10/01 06:50:07;;;;;;;3.70;2.63;;;16.50;99.90;;;;;;5024797;28;20289;-63
2023/10/01 06:52:41;;;;;;;5.05;2.30;;;19.60;99.90;;;;;;5012902;28;20516;-64
2023/10/01 06:55:25;;;;;;;4.32;2.95;;;22.50;99.90;;;;;;5021965;28;20695;-69
2023/10/01 06:57:53;;;;;;;6.40;3.03;;;22.90;99.90;;;;;;5026597;28;20196;-73
2023/10/01 07:00:32;;;;;;;4.65;2.53;;;23.80;99.90;;;;;;5020549;28;20568;-69
2023/10/01 07:03:16;;;;;;;7.13;2.88;;;21.40;99.90;;;;;;5017231;28;20220;-65
2023/10/01 07:05:46;;;;;;;8.07;3.15;;;20.00;99.90;;;;;;5032985;28;20661;-68
2023/10/01 07:08:16;;;;;;;6.70;3.60;;;19.10;99.90;;;;;;5026733;28;20626;-69
2023/10/01 07:10:46;;;;;;;9.00;3.63;;;18.30;99.90;;;;;;5040080;28;20727;-69
2023/10/01 07:13:15;;;;;;;6.35;3.33;;;17.90;99.90;;;;;;5027590;28;20200;-68
2023/10/01 07:15:48;;;;;;;4.32;2.83;;;18.00;99.90;;;;;;5022897;28;20191;-66
2023/10/01 07:18:19;;;;;;;7.32;3.47;;;18.10;99.90;;;;;;5019914;28;20219;-66
2023/10/01 07:20:49;;;;;;;8.85;3.95;;;18.10;99.90;;;;;;5023572;28;20198;-66
2023/10/01 07:23:21;;;;;;;7.85;3.72;;;18.40;99.90;;;;;;5015912;28;20193;-66
2023/10/01 07:25:57;;;;;;;4.43;3.25;;;18.70;99.90;;;;;;5026579;28;20622;-67
2023/10/01 07:28:24;;;;;;;7.13;3.63;;;18.80;99.90;;;;;;5024250;28;20258;-69
2023/10/01 07:30:56;;;;;;;6.13;2.95;;;20.50;99.90;;;;;;5037581;28;20189;-72
2023/10/01 07:33:23;;;;;;;8.50;3.53;;;24.50;99.90;;;;;;5019161;28;20644;-70
2023/10/01 07:35:59;;;;;;;6.30;3.60;;;25.00;99.90;;;;;;5028875;28;20960;-70
2023/10/01 07:38:48;;;;;;;6.57;3.72;;;26.20;99.90;;;;;;5025067;28;20232;-71
2023/10/01 07:41:16;;;;;;;7.10;3.45;;;26.60;99.90;;;;;;5024826;28;20196;-69
2023/10/01 07:43:43;;;;;;;8.05;3.67;;;27.20;99.90;;;;;;5024298;28;20634;-67
2023/10/01 07:46:14;;;;;;;4.43;3.17;;;27.50;99.90;;;;;;5019164;28;20200;-67
2023/10/01 07:48:47;;;;;;;7.22;3.90;;;30.30;99.90;;;;;;5012462;28;20216;-66
2023/10/01 07:51:26;;;;;;;8.02;4.07;;;30.20;99.90;;;;;;5024288;28;20707;-66
2023/10/01 07:53:54;;;;;;;8.20;3.78;;;27.90;99.90;;;;;;5022539;28;20189;-66
2023/10/01 07:56:23;;;;;;;6.97;3.85;;;27.10;99.90;;;;;;5019079;28;20617;-66
2023/10/01 07:59:16;;;;;;;8.07;3.95;;;23.80;99.90;;;;;;5022391;28;20927;-66
2023/10/01 08:01:45;;;;;;;8.60;4.15;;;22.30;99.90;;;;;;5035976;28;20687;-66
2023/10/01 08:07:06;;;;;;;9.65;5.00;;;20.10;99.90;;;;;;5036489;28;20204;-68
2023/10/01 08:09:39;;;;;;;8.90;4.70;;;19.90;99.90;;;;;;5023894;28;20193;-70
2023/10/01 08:12:07;;;;;;;9.52;4.60;;;19.80;99.90;;;;;;5021000;28;20267;-69
2023/10/01 08:14:34;;;;;;;8.63;4.43;;;19.40;99.90;;;;;;5025888;28;20664;-70
2023/10/01 08:17:03;;;;;;;8.32;4.28;;;19.10;99.90;;;;;;5020405;28;20197;-70
2023/10/01 08:19:44;;;;;;;7.28;4.40;;;19.20;99.90;;;;;;5027066;28;20184;-64
2023/10/01 08:22:22;;;;;;;11.40;5.20;;;19.40;99.90;;;;;;5017672;28;20216;-63
2023/10/01 08:24:51;;;;;;;7.72;3.50;;;19.40;99.90;;;;;;5017460;28;20598;-64
2023/10/01 08:27:31;;;;;;;10.68;6.00;;;19.30;99.90;;;;;;5033540;28;20290;-65
2023/10/01 08:30:17;;;;;;;10.98;4.50;;;19.40;99.90;;;;;;5034008;28;20690;-68
2023/10/01 08:32:49;;;;;;;9.80;4.60;;;19.40;99.90;;;;;;5021447;28;20339;-64
2023/10/01 08:35:23;;;;;;;6.97;4.55;;;19.60;99.90;;;;;;5027522;28;20207;-73
2023/10/01 08:37:59;;;;;;;9.05;4.53;;;19.80;99.90;;;;;;5010156;28;20351;-65
2023/10/01 08:40:27;;;;;;;9.82;4.57;;;19.90;99.90;;;;;;5018673;28;20220;-64
2023/10/01 08:42:58;;;;;;;7.63;4.15;;;20.10;99.90;;;;;;5019480;28;20208;-65
2023/10/01 08:45:37;;;;;;;12.52;5.63;;;22.40;99.90;;;;;;5010223;28;20242;-65
2023/10/01 08:48:17;;;;;;;8.02;4.40;;;28.90;99.90;;;;;;5021393;28;20209;-70
2023/10/01 08:50:45;;;;;;;12.85;4.60;;;30.90;99.90;;;;;;5022118;28;20569;-66
2023/10/01 08:53:13;;;;;;;8.27;4.65;;;31.70;99.90;;;;;;5022677;28;20204;-68
2023/10/01 08:58:27;;;;;;;9.48;5.97;;;34.10;99.90;;;;;;5023522;28;20205;-67
2023/10/01 09:01:12;;;;;;;10.77;5.40;;;36.80;99.90;;;;;;5019493;28;20219;-66
2023/10/01 09:03:47;;;;;;;9.82;5.22;;;33.60;99.90;;;;;;5015581;28;20202;-66
2023/10/01 09:06:25;;;;;;;8.18;5.60;;;35.10;99.90;;;;;;5008346;28;20192;-67
2023/10/01 09:09:00;;;;;;;8.38;5.88;;;37.60;99.90;;;;;;5018926;28;20649;-66
2023/10/01 09:11:40;;;;;;;8.43;5.47;;;35.70;99.90;;;;;;5023287;28;20711;-66
2023/10/01 09:14:17;;;;;;;12.18;7.10;;;34.90;99.90;;;;;;5017268;28;20700;-66
2023/10/01 09:16:46;;;;;;;11.02;5.93;;;35.10;99.90;;;;;;5014701;28;22734;-66
2023/10/01 09:19:30;;;;;;;12.20;6.10;;;36.40;99.90;;;;;;5026604;28;20191;-65
2023/10/01 09:22:08;;;;;;;11.95;6.13;;;35.60;99.90;;;;;;5020227;28;20755;-66
2023/10/01 09:24:39;;;;;;;13.68;5.72;;;33.80;99.90;;;;;;5021900;28;20270;-69
2023/10/01 09:27:21;;;;;;;8.90;5.38;;;31.10;99.90;;;;;;5020348;28;20199;-69
2023/10/01 09:29:57;;;;;;;12.57;7.63;;;31.70;99.90;;;;;;5020058;28;20276;-69
2023/10/01 09:32:50;;;;;;;13.95;7.88;;;33.40;99.90;;;;;;5023819;28;20219;-69
2023/10/01 09:35:38;;;;;;;10.65;7.60;;;35.10;99.90;;;;;;5029952;28;20279;-70
2023/10/01 09:38:12;;;;;;;11.07;5.32;;;36.60;99.90;;;;;;5023185;28;20236;-69
2023/10/01 09:40:45;;;;;;;11.70;5.75;;;36.30;99.90;;;;;;5031445;28;20283;-69
2023/10/01 09:43:24;;;;;;;12.07;6.00;;;35.40;99.90;;;;;;5026935;28;20562;-69
2023/10/01 09:45:53;;;;;;;10.98;6.30;;;35.30;99.90;;;;;;5036941;28;20188;-69
2023/10/01 09:48:36;;;;;;;11.02;5.47;;;35.40;99.90;;;;;;5021819;28;20217;-69
2023/10/01 09:51:09;;;;;;;12.45;5.97;;;33.80;99.90;;;;;;5028896;28;20286;-69
2023/10/01 09:53:44;;;;;;;9.75;5.28;;;34.70;99.90;;;;;;5030061;28;20262;-69
2023/10/01 09:56:13;;;;;;;13.80;6.32;;;35.10;99.90;;;;;;5024981;28;20191;-69
2023/10/01 09:58:47;;;;;;;9.07;5.68;;;35.90;99.90;;;;;;5039487;28;20196;-70
2023/10/01 10:01:17;;;;;;;10.27;6.30;;;35.80;99.90;;;;;;5034386;28;20227;-69
2023/10/01 10:03:54;;;;;;;9.98;5.85;;;32.40;99.90;;;;;;5031157;28;20741;-69
2023/10/01 10:06:24;;;;;;;11.70;5.63;;;34.30;99.90;;;;;;5028789;28;20219;-70
2023/10/01 10:09:03;;;;;;;10.35;5.60;;;34.70;99.90;;;;;;5028040;28;20580;-68
2023/10/01 10:11:43;;;;;;;12.75;5.80;;;33.80;99.90;;;;;;5031138;28;20184;-69
2023/10/01 10:14:33;;;;;;;9.50;5.25;;;32.60;99.90;;;;;;5032828;28;20704;-68
2023/10/01 10:20:24;;;;;;;9.48;5.60;;;37.50;99.90;;;;;;5027662;28;20242;-69
2023/10/01 10:23:16;;;;;;;8.90;5.30;;;35.60;99.90;;;;;;5024799;28;20224;-67
2023/10/01 10:25:44;;;;;;;8.75;5.45;;;37.70;99.90;;;;;;5030993;28;20191;-66
2023/10/01 10:28:24;;;;;;;12.07;5.20;;;36.90;99.90;;;;;;5040249;28;20207;-65
2023/10/01 10:31:29;;;;;;;8.20;5.47;;;33.60;99.90;;;;;;5036154;28;20240;-65
2023/10/01 10:34:26;;;;;;;13.35;6.68;;;33.00;99.90;;;;;;5042920;28;20252;-69
2023/10/01 10:36:54;;;;;;;10.27;6.13;;;33.50;99.90;;;;;;5024286;28;20257;-68
2023/10/01 10:40:02;;;;;;;7.93;4.93;;;33.30;99.90;;;;;;5029199;28;20235;-68
2023/10/01 10:42:29;;;;;;;10.38;6.13;;;32.50;99.90;;;;;;5020235;28;20251;-68
2023/10/01 10:45:21;;;;;;;12.55;6.88;;;34.40;99.90;;;;;;5034072;28;20202;-69
2023/10/01 10:48:03;;;;;;;10.30;6.18;;;34.50;99.90;;;;;;5027732;28;20338;-69
2023/10/01 10:50:56;;;;;;;11.85;6.22;;;35.40;99.90;;;;;;5042840;28;20299;-70
2023/10/01 10:53:37;;;;;;;11.98;6.85;;;35.30;99.90;;;;;;5021228;28;20262;-68
2023/10/01 10:56:13;;;;;;;11.30;6.80;;;33.60;99.90;;;;;;5033489;28;20192;-69
2023/10/01 10:58:44;;;;;;;11.45;6.20;;;34.50;99.90;;;;;;5028794;28;20258;-69
2023/10/01 11:01:15;;;;;;;15.00;6.82;;;33.30;99.90;;;;;;5028550;28;20191;-68
2023/10/01 11:03:47;;;;;;;10.80;6.75;;;34.90;99.90;;;;;;5027904;28;20553;-70
2023/10/01 11:06:22;;;;;;;11.65;8.43;;;34.00;99.90;;;;;;5023856;28;20196;-68
2023/10/01 11:08:51;;;;;;;11.40;5.85;;;33.50;99.90;;;;;;5027121;28;20788;-68
2023/10/01 11:11:29;;;;;;;11.15;6.63;;;32.30;99.90;;;;;;5027046;28;20836;-70
2023/10/01 11:14:02;;;;;;;10.80;6.10;;;32.30;99.90;;;;;;5021801;28;20204;-68
2023/10/01 11:16:33;;;;;;;10.43;5.63;;;32.80;99.90;;;;;;5028900;28;20512;-68
2023/10/01 11:19:12;;;;;;;11.90;5.85;;;31.50;99.90;;;;;;5027387;28;20659;-68
2023/10/01 11:21:54;;;;;;;14.20;6.88;;;31.70;99.90;;;;;;5024866;28;20218;-69
2023/10/01 11:24:29;;;;;;;8.95;5.65;;;31.60;99.90;;;;;;5028304;28;20195;-68
2023/10/01 11:27:25;;;;;;;11.70;7.40;;;30.20;99.90;;;;;;5027673;28;20200;-68
2023/10/01 11:29:59;;;;;;;12.27;5.78;;;29.70;99.90;;;;;;5026849;28;20275;-69
2023/10/01 11:35:41;;;;;;;9.60;5.30;;;28.80;99.90;;;;;;5023578;28;20281;-68
2023/10/01 11:38:19;;;;;;;10.40;6.00;;;28.60;99.90;;;;;;5023525;28;20786;-68
2023/10/01 11:41:07;;;;;;;12.05;6.53;;;29.00;99.90;;;;;;5027212;28;20207;-68
2023/10/01 11:44:00;;;;;;;10.13;7.03;;;29.20;99.90;;;;;;5028149;28;20204;-70
2023/10/01 11:46:57;;;;;;;13.00;7.90;;;29.90;99.90;;;;;;5025079;28;20280;-71
2023/10/01 11:49:37;;;;;;;11.32;6.95;;;30.90;99.90;;;;;;5022840;28;20208;-70
2023/10/01 11:52:25;;;;;;;12.07;6.38;;;31.10;99.90;;;;;;5023944;28;20612;-70
2023/10/01 11:54:55;;;;;;;13.05;6.15;;;31.30;99.90;;;;;;5032970;28;20196;-69
2023/10/01 11:57:24;;;;;;;11.35;6.40;;;28.80;99.90;;;;;;5026257;28;20193;-69
2023/10/01 11:59:56;;;;;;;11.02;6.18;;;27.60;99.90;;;;;;5020683;28;20260;-70
2023/10/01 12:02:25;;;;;;;12.32;6.70;;;27.50;99.90;;;;;;5022143;28;20716;-70
2023/10/01 12:04:57;;;;;;;15.25;8.10;;;27.80;99.90;;;;;;5017898;28;20224;-69
2023/10/01 12:07:32;;;;;;;13.27;7.00;;;28.80;99.90;;;;;;5018573;28;20195;-68
2023/10/01 12:10:31;;;;;;;12.07;6.28;;;29.20;99.90;;;;;;5030832;28;20297;-68
2023/10/01 12:12:48;;;;;;;12.05;6.35;;;28.30;99.90;;;;;;5016624;28;20242;-69
2023/10/01 12:15:33;;;;;;;12.20;6.15;;;27.50;99.90;;;;;;5013947;28;20224;-72
2023/10/01 12:18:08;;;;;;;13.68;6.90;;;26.40;99.90;;;;;;5036195;28;20226;-76
2023/10/01 12:21:24;;;;;;;13.05;7.38;;;26.90;99.90;;;;;;5027675;28;20584;-74
2023/10/01 12:23:29;;;;;;;13.35;6.78;;;27.90;99.90;;;;;;5014553;28;20212;-68
2023/10/01 12:26:31;;;;;;;9.50;5.65;;;27.90;99.90;;;;;;5014950;28;20620;-69
2023/10/01 12:31:33;;;;;;;12.25;5.88;;;26.70;99.90;;;;;;5024832;28;20196;-69
2023/10/01 12:34:01;;;;;;;10.85;5.18;;;26.10;99.90;;;;;;5031390;28;20485;-68
2023/10/01 12:36:42;;;;;;;11.98;6.25;;;26.50;99.90;;;;;;5011236;28;20279;-69
2023/10/01 12:44:30;;;;;;;14.70;6.15;;;26.50;99.90;;;;;;5020467;28;20212;-67
2023/10/01 12:47:06;;;;;;;9.75;5.72;;;26.10;99.90;;;;;;5016272;28;20196;-67
2023/10/01 12:49:35;;;;;;;11.93;6.10;;;26.10;99.90;;;;;;5040499;28;20659;-68
2023/10/01 12:52:07;;;;;;;15.02;5.65;;;26.10;99.90;;;;;;5016207;28;20189;-67
2023/10/01 12:54:38;;;;;;;11.32;5.68;;;26.20;99.90;;;;;;5035842;28;20471;-78
2023/10/01 12:57:09;;;;;;;9.43;5.57;;;26.10;99.90;;;;;;5024179;28;20196;-71
2023/10/01 12:59:43;;;;;;;14.43;6.18;;;25.50;99.90;;;;;;5013768;28;20203;-67
2023/10/01 13:02:28;;;;;;;10.82;5.65;;;25.00;99.90;;;;;;5025005;28;20196;-67
2023/10/01 13:07:45;;;;;;;11.35;5.82;;;25.50;99.90;;;;;;5011777;28;20204;-67
2023/10/01 13:10:14;;;;;;;12.00;6.13;;;25.00;99.90;;;;;;5009186;28;20237;-68
2023/10/01 13:12:57;;;;;;;11.75;6.55;;;25.00;99.90;;;;;;5031759;28;20196;-67
2023/10/01 13:15:30;;;;;;;9.00;5.80;;;25.00;99.90;;;;;;5036030;28;20192;-68
2023/10/01 13:18:04;;;;;;;14.27;6.15;;;24.80;99.90;;;;;;5030506;28;20732;-70
2023/10/01 13:20:41;;;;;;;12.40;5.88;;;24.80;99.90;;;;;;5030845;28;20204;-69
2023/10/01 13:23:08;;;;;;;11.32;5.95;;;24.80;99.90;;;;;;5028828;28;20666;-66
2023/10/01 13:25:36;;;;;;;15.07;6.35;;;24.70;99.90;;;;;;5018452;28;20212;-63
2023/10/01 13:28:04;;;;;;;9.63;5.80;;;24.70;99.90;;;;;;5027132;28;20199;-63
2023/10/01 13:31:03;;;;;;;12.95;6.57;;;24.40;99.90;;;;;;5019968;28;20312;-64
2023/10/01 13:33:22;;;;;;;9.55;5.55;;;24.50;99.90;;;;;;5019842;28;20247;-64
2023/10/01 13:35:52;;;;;;;9.43;5.18;;;24.70;99.90;;;;;;5028343;28;20679;-64
2023/10/01 14:08:45;;;;;;;10.55;5.85;;;24.60;99.90;;;;;;5030441;28;20748;-68
2023/10/01 14:11:26;;;;;;;10.93;5.70;;;24.60;99.90;;;;;;5018478;28;20195;-66
2023/10/01 14:13:54;;;;;;;10.77;5.40;;;24.60;99.90;;;;;;5000315;28;20197;-67
2023/10/01 14:16:23;;;;;;;10.35;5.28;;;24.40;99.90;;;;;;5028242;28;20200;-67
2023/10/01 14:18:55;;;;;;;11.70;5.70;;;24.40;99.90;;;;;;5016785;28;20200;-67
2023/10/01 14:21:32;;;;;;;10.35;5.40;;;24.20;99.90;;;;;;5035463;28;20204;-69
2023/10/01 14:26:55;;;;;;;14.27;6.53;;;24.20;99.90;;;;;;5016962;28;20208;-67
2023/10/01 14:29:23;;;;;;;10.23;5.13;;;24.20;99.90;;;;;;5028290;28;20234;-67
2023/10/01 14:31:51;;;;;;;11.63;5.00;;;24.20;99.90;;;;;;5033403;28;20552;-72
2023/10/01 14:34:21;;;;;;;9.98;5.38;;;24.20;99.90;;;;;;5019740;28;20279;-67
2023/10/01 14:37:00;;;;;;;11.60;5.68;;;24.20;99.90;;;;;;5032374;28;20581;-66
2023/10/01 14:39:33;;;;;;;12.30;5.90;;;24.00;99.90;;;;;;5018574;28;20250;-65